Schedule Details


Flight Number: CTN470
Departure: Franjo Tudman (LDZA) at 09:00
Arrival: Charles-de-gaulle (LFPG) at 11:05
Route: PODET DCT TIBRO/N0453F380 UY9 NAXAV UZ613 RONAG UL613 HOC UL856 MOROK/N0454F360 UL856 PENDU/N0459F330 UL856 GIVRI/N0458F320 UM982 TINIL

Weather Information
LDZA 211400Z 08004KT 010V170 CAVOK 32/16 Q1015 NOSIG
LFPG 211400Z 35004KT 270V080 9999 SCT038 BKN050 26/16 Q1020 NOSIG
Schedule Frequency

Route Map